createdAt,value
2018-10-12T00:01:18.089Z,26.23
2018-10-12T00:04:11.653Z,23.57
2018-10-12T00:13:13.170Z,26.93
2018-10-12T00:16:00.883Z,24.27
2018-10-12T00:18:49.207Z,23.05
2018-10-12T00:21:48.364Z,25.52
2018-10-12T00:24:36.029Z,27.63
2018-10-12T00:27:25.354Z,25.90
2018-10-12T00:30:20.808Z,25.43
2018-10-12T00:33:09.836Z,26.90
2018-10-12T00:39:14.722Z,28.90
2018-10-12T00:45:12.522Z,24.27
2018-10-12T00:48:00.043Z,27.17
2018-10-12T00:50:48.052Z,24.77
2018-10-12T00:53:35.885Z,30.23
2018-10-12T00:56:25.405Z,32.00
2018-10-12T01:02:34.838Z,24.20
2018-10-12T01:05:32.571Z,28.23
2018-10-12T01:11:35.677Z,28.40
2018-10-12T01:14:23.304Z,27.43
2018-10-12T01:20:21.866Z,27.37
2018-10-12T01:23:17.810Z,22.70
2018-10-12T01:26:07.070Z,23.60
2018-10-12T01:29:05.033Z,23.73
2018-10-12T01:32:00.609Z,29.40
2018-10-12T01:34:48.239Z,29.37
2018-10-12T01:37:39.460Z,24.87
2018-10-12T01:40:24.408Z,25.33
2018-10-12T01:43:13.069Z,25.83
2018-10-12T01:49:09.595Z,25.60
2018-10-12T01:51:56.936Z,23.10
2018-10-12T01:54:56.810Z,29.33
2018-10-12T02:04:01.783Z,22.83
2018-10-12T02:06:51.935Z,28.53
2018-10-12T02:09:42.487Z,26.43
2018-10-12T02:12:35.029Z,30.60
2018-10-12T02:15:34.353Z,32.13
2018-10-12T02:18:27.657Z,26.13
2018-10-12T02:21:22.684Z,24.77
2018-10-12T02:24:12.406Z,24.27
2018-10-12T02:26:59.725Z,25.87
2018-10-12T02:29:52.219Z,25.00
2018-10-12T02:32:43.736Z,29.87
2018-10-12T02:35:44.316Z,24.98
2018-10-12T02:38:38.099Z,25.83
2018-10-12T02:41:26.263Z,28.67
2018-10-12T02:44:15.073Z,26.97
2018-10-12T02:47:05.714Z,28.70
2018-10-12T02:49:55.459Z,25.80
2018-10-12T02:52:44.395Z,23.27
2018-10-12T03:01:47.705Z,24.50
2018-10-12T03:04:34.668Z,29.27
2018-10-12T03:10:33.881Z,27.00
2018-10-12T03:13:21.728Z,23.67
2018-10-12T03:16:09.426Z,24.10
2018-10-12T03:18:57.916Z,23.40
2018-10-12T03:21:47.051Z,23.87
2018-10-12T03:24:42.460Z,29.37
2018-10-12T03:27:43.870Z,26.37
2018-10-12T03:30:39.792Z,27.10
2018-10-12T03:33:27.535Z,22.50
2018-10-12T03:36:25.430Z,24.47
2018-10-12T03:42:32.175Z,24.27
2018-10-12T03:48:35.714Z,29.10
2018-10-12T03:51:34.447Z,26.17
2018-10-12T03:54:22.841Z,24.67
2018-10-12T04:03:26.745Z,26.23
2018-10-12T04:06:17.300Z,24.40
2018-10-12T04:12:20.786Z,24.73
2018-10-12T04:15:11.479Z,23.63
2018-10-12T04:21:06.018Z,22.07
2018-10-12T04:23:54.771Z,26.43
2018-10-12T04:26:46.286Z,25.27
2018-10-12T04:29:42.663Z,26.10
2018-10-12T04:35:53.950Z,24.20
2018-10-12T04:38:50.266Z,22.77
2018-10-12T04:47:57.958Z,23.87
2018-10-12T04:57:07.647Z,25.23
2018-10-12T04:59:56.430Z,24.20
2018-10-12T05:02:45.909Z,21.50
2018-10-12T05:05:42.480Z,21.00
2018-10-12T05:11:37.509Z,26.83
2018-10-12T05:14:24.576Z,22.17
2018-10-12T05:17:12.134Z,21.70
2018-10-12T05:19:59.590Z,24.87
2018-10-12T05:22:49.192Z,23.45
2018-10-12T05:25:36.517Z,20.40
2018-10-12T05:34:47.346Z,20.77
2018-10-12T05:37:34.751Z,22.73
2018-10-12T05:40:25.517Z,22.93
2018-10-12T05:43:20.509Z,25.60
2018-10-12T05:46:08.036Z,23.70
2018-10-12T05:52:35.030Z,25.53
2018-10-12T05:55:22.792Z,27.07
2018-10-12T05:58:11.413Z,20.57
2018-10-12T06:04:06.051Z,22.80
2018-10-12T06:06:53.471Z,23.67
2018-10-12T06:09:45.908Z,25.37
2018-10-12T06:12:33.654Z,23.93
2018-10-12T06:15:26.250Z,24.27
2018-10-12T06:18:13.997Z,22.13
2018-10-12T06:21:01.911Z,25.62
2018-10-12T06:23:49.778Z,23.50
2018-10-12T06:26:37.879Z,21.43
2018-10-12T06:38:52.099Z,24.67
2018-10-12T06:41:40.242Z,22.43
2018-10-12T06:44:28.625Z,22.60
2018-10-12T06:50:24.743Z,21.15
2018-10-12T06:53:14.997Z,23.15
2018-10-12T06:59:11.230Z,25.33
2018-10-12T07:02:01.692Z,23.83
2018-10-12T07:04:52.741Z,23.95
2018-10-12T07:07:42.533Z,21.30
2018-10-12T07:16:43.876Z,21.20
2018-10-12T07:19:32.506Z,20.23
2018-10-12T07:22:20.379Z,20.25
2018-10-12T07:25:08.211Z,19.47
2018-10-12T07:34:10.484Z,20.77
2018-10-12T07:37:11.254Z,23.58
2018-10-12T07:43:06.697Z,24.05
2018-10-12T07:46:04.720Z,20.62
2018-10-12T07:48:52.373Z,21.77
2018-10-12T07:54:57.356Z,20.33
2018-10-12T07:57:51.674Z,21.90
2018-10-12T08:00:47.436Z,22.92
2018-10-12T08:03:36.020Z,19.30
2018-10-12T08:06:24.310Z,19.73
2018-10-12T08:09:13.370Z,18.02
2018-10-12T08:12:01.365Z,19.50
2018-10-12T08:14:50.539Z,20.37
2018-10-12T08:17:39.407Z,20.75
2018-10-12T08:20:27.263Z,17.98
2018-10-12T08:23:15.219Z,22.48
2018-10-12T08:26:02.774Z,16.48
2018-10-12T08:28:52.041Z,19.10
2018-10-12T08:31:40.090Z,25.42
2018-10-12T08:34:29.622Z,23.90
2018-10-12T08:40:37.006Z,24.15
2018-10-12T08:46:31.393Z,18.12
2018-10-12T08:49:27.557Z,15.50
2018-10-12T08:52:21.243Z,16.70
2018-10-12T08:55:09.979Z,15.93
2018-10-12T08:57:57.720Z,15.50
2018-10-12T09:00:47.452Z,14.95
2018-10-12T09:03:35.479Z,15.02
2018-10-12T09:06:24.554Z,16.48
2018-10-12T09:09:12.528Z,13.15
2018-10-12T09:12:03.272Z,13.95
2018-10-12T09:14:52.115Z,14.05
2018-10-12T09:17:39.775Z,11.60
2018-10-12T09:20:27.425Z,15.40
2018-10-12T09:23:16.553Z,14.98
2018-10-12T09:26:04.226Z,15.57
2018-10-12T09:28:51.547Z,14.95
2018-10-12T09:31:39.530Z,17.25
2018-10-12T09:34:27.439Z,14.93
2018-10-12T09:37:16.926Z,12.50
2018-10-12T09:40:05.170Z,15.60
2018-10-12T09:42:53.131Z,11.70
2018-10-12T09:45:40.548Z,9.63
2018-10-12T09:48:28.451Z,10.23
2018-10-12T09:51:16.415Z,10.15
2018-10-12T09:54:04.566Z,9.63
2018-10-12T09:56:55.824Z,10.27
2018-10-12T10:02:53.863Z,9.95
2018-10-12T10:09:48.418Z,10.57
2018-10-12T10:12:35.967Z,11.65
2018-10-12T10:15:26.001Z,9.63
2018-10-12T10:18:13.904Z,10.57
2018-10-12T10:24:09.496Z,12.15
2018-10-12T10:26:57.823Z,8.82
2018-10-12T10:29:46.394Z,10.32
2018-10-12T10:32:38.393Z,8.68
2018-10-12T10:38:36.217Z,11.68
2018-10-12T10:41:26.413Z,10.70
2018-10-12T10:44:15.263Z,10.52
2018-10-12T10:47:03.795Z,7.50
2018-10-12T10:49:54.061Z,9.05
2018-10-12T10:55:52.367Z,11.48
2018-10-12T10:58:39.935Z,8.70
2018-10-12T11:01:27.592Z,10.13
2018-10-12T11:04:18.141Z,8.98
2018-10-12T11:07:07.021Z,11.12
2018-10-12T11:13:18.418Z,8.90
2018-10-12T11:16:05.778Z,11.93
2018-10-12T11:18:53.504Z,9.20
2018-10-12T11:21:40.953Z,13.38
2018-10-12T11:24:28.528Z,8.38
2018-10-12T11:27:20.130Z,10.55
2018-10-12T11:30:09.976Z,7.72
2018-10-12T11:32:57.956Z,7.22
2018-10-12T11:35:45.727Z,12.55
2018-10-12T11:38:33.472Z,8.73
2018-10-12T11:41:21.386Z,8.37
2018-10-12T11:44:10.763Z,8.75
2018-10-12T11:47:04.321Z,8.88
2018-10-12T11:49:51.894Z,6.80
2018-10-12T11:52:39.081Z,6.90
2018-10-12T11:55:27.243Z,7.20
2018-10-12T11:58:15.043Z,7.78
2018-10-12T12:01:04.031Z,6.22
2018-10-12T12:03:52.983Z,7.40
2018-10-12T12:06:41.255Z,5.90
2018-10-12T12:09:43.160Z,5.95
2018-10-12T12:12:32.350Z,8.38
2018-10-12T12:15:22.537Z,5.37
2018-10-12T12:18:11.587Z,8.93
2018-10-12T12:21:00.120Z,8.02
2018-10-12T12:27:03.210Z,7.07
2018-10-12T12:29:50.650Z,5.43
2018-10-12T12:32:40.548Z,9.38
2018-10-12T12:35:33.296Z,8.75
2018-10-12T12:38:20.143Z,8.80
2018-10-12T12:41:09.273Z,7.30
2018-10-12T12:44:00.231Z,7.60
2018-10-12T12:46:51.492Z,6.97
2018-10-12T12:49:43.000Z,6.55
2018-10-12T12:52:30.594Z,5.45
2018-10-12T12:55:18.439Z,7.35
2018-10-12T12:58:08.078Z,4.82
2018-10-12T13:00:59.219Z,6.18
2018-10-12T13:03:47.807Z,4.80
2018-10-12T13:06:48.849Z,4.85
2018-10-12T13:09:35.939Z,5.10
2018-10-12T13:12:30.464Z,4.87
2018-10-12T13:15:18.833Z,4.55
2018-10-12T13:18:09.374Z,4.90
2018-10-12T13:24:05.052Z,5.00
2018-10-12T13:30:00.422Z,5.70
2018-10-12T13:32:53.965Z,6.40
2018-10-12T13:35:42.074Z,4.97
2018-10-12T13:38:30.742Z,5.57
2018-10-12T13:41:18.996Z,6.20
2018-10-12T13:44:06.092Z,4.37
2018-10-12T13:46:56.363Z,4.55
2018-10-12T13:49:51.998Z,3.50
2018-10-12T13:52:40.152Z,5.53
2018-10-12T13:55:29.812Z,4.97
2018-10-12T13:58:25.120Z,5.07
2018-10-12T14:01:15.834Z,4.53
2018-10-12T14:04:18.763Z,3.70
2018-10-12T14:07:06.310Z,3.97
2018-10-12T14:09:54.066Z,3.03
2018-10-12T14:12:41.648Z,6.40
2018-10-12T14:15:29.426Z,5.05
2018-10-12T14:18:17.855Z,3.92
2018-10-12T14:21:05.355Z,6.68
2018-10-12T14:23:52.906Z,3.25
2018-10-12T14:26:40.910Z,4.55
2018-10-12T14:29:28.184Z,4.82
2018-10-12T14:32:17.724Z,4.00
2018-10-12T14:35:06.581Z,3.60
2018-10-12T14:37:59.396Z,3.40
2018-10-12T14:40:47.422Z,2.55
2018-10-12T14:43:35.107Z,3.62
2018-10-12T14:46:24.658Z,6.55
2018-10-12T14:49:13.429Z,2.97
2018-10-12T14:52:03.268Z,4.57
2018-10-12T14:54:51.603Z,4.00
2018-10-12T14:57:39.266Z,4.60
2018-10-12T15:00:26.615Z,3.47
2018-10-12T15:03:14.000Z,4.07
2018-10-12T15:06:13.812Z,7.03
2018-10-12T15:09:01.555Z,4.40
2018-10-12T15:11:49.062Z,4.25
2018-10-12T15:17:42.942Z,4.57
2018-10-12T15:20:30.912Z,5.93
2018-10-12T15:23:18.870Z,4.60
2018-10-12T15:26:06.809Z,5.25
2018-10-12T15:28:53.777Z,5.10
2018-10-12T15:31:41.317Z,3.80
2018-10-12T15:34:28.715Z,6.57
2018-10-12T15:37:24.830Z,6.25
2018-10-12T15:40:12.910Z,6.25
2018-10-12T15:43:01.130Z,4.30
2018-10-12T15:45:48.644Z,6.00
2018-10-12T15:48:36.691Z,5.45
2018-10-12T15:54:30.784Z,6.87
2018-10-12T16:00:25.443Z,6.95
2018-10-12T16:03:14.031Z,8.80
2018-10-12T16:06:02.267Z,10.65
2018-10-12T16:08:50.140Z,8.13
2018-10-12T16:11:38.266Z,9.98
2018-10-12T16:14:26.836Z,6.68
2018-10-12T16:17:14.877Z,6.68
2018-10-12T16:20:02.389Z,7.50
2018-10-12T16:22:50.949Z,5.43
2018-10-12T16:26:13.011Z,5.32
2018-10-12T16:29:00.590Z,5.78
2018-10-12T16:31:52.766Z,9.85
2018-10-12T16:34:46.932Z,9.93
2018-10-12T16:37:34.984Z,6.40
2018-10-12T16:43:30.280Z,7.07
2018-10-12T16:46:17.943Z,7.07
2018-10-12T16:49:05.735Z,8.48
2018-10-12T16:51:53.057Z,6.72
2018-10-12T16:54:43.354Z,8.52
2018-10-12T16:57:30.836Z,10.00
2018-10-12T17:00:19.205Z,7.22
2018-10-12T17:03:06.242Z,6.05
2018-10-12T17:05:54.255Z,7.82
2018-10-12T17:08:41.491Z,7.05
2018-10-12T17:11:31.971Z,12.13
2018-10-12T17:14:19.693Z,7.45
2018-10-12T17:17:08.158Z,10.25
2018-10-12T17:23:02.668Z,10.85
2018-10-12T17:25:50.374Z,7.20
2018-10-12T17:28:37.931Z,8.77
2018-10-12T17:31:26.013Z,8.25
2018-10-12T17:37:19.728Z,6.82
2018-10-12T17:40:07.634Z,7.20
2018-10-12T17:42:55.735Z,7.12
2018-10-12T17:45:50.881Z,7.03
2018-10-12T17:48:39.770Z,7.15
2018-10-12T17:51:27.522Z,7.87
2018-10-12T17:54:15.063Z,9.40
2018-10-12T17:57:04.802Z,7.45
2018-10-12T17:59:53.740Z,8.18
2018-10-12T18:02:43.737Z,7.97
2018-10-12T18:11:46.268Z,11.20
2018-10-12T18:14:34.512Z,11.98
2018-10-12T18:17:23.528Z,12.07
2018-10-12T18:20:12.186Z,8.90
2018-10-12T18:22:59.490Z,13.05
2018-10-12T18:25:57.557Z,9.75
2018-10-12T18:31:54.541Z,11.68
2018-10-12T18:37:54.778Z,10.82
2018-10-12T18:40:42.783Z,10.32
2018-10-12T18:43:31.504Z,9.77
2018-10-12T18:46:20.523Z,9.60
2018-10-12T18:49:08.945Z,9.52
2018-10-12T18:51:57.377Z,8.38
2018-10-12T18:54:44.975Z,11.95
2018-10-12T18:57:32.425Z,14.85
2018-10-12T19:00:20.800Z,12.43
2018-10-12T19:03:08.728Z,17.08
2018-10-12T19:05:57.137Z,12.15
2018-10-12T19:08:50.958Z,14.50
2018-10-12T19:11:37.562Z,11.12
2018-10-12T19:14:27.883Z,11.23
2018-10-12T19:17:16.588Z,11.38
2018-10-12T19:20:04.825Z,13.43
2018-10-12T19:22:52.573Z,11.45
2018-10-12T19:25:41.502Z,13.52
2018-10-12T19:28:30.071Z,12.13
2018-10-12T19:31:21.690Z,10.00
2018-10-12T19:34:13.875Z,13.32
2018-10-12T19:37:03.944Z,10.37
2018-10-12T19:39:54.816Z,13.80
2018-10-12T19:42:43.045Z,15.65
2018-10-12T19:48:45.512Z,11.20
2018-10-12T19:54:44.026Z,11.15
2018-10-12T19:57:33.761Z,11.85
2018-10-12T20:00:22.188Z,9.82
2018-10-12T20:06:21.193Z,13.75
2018-10-12T20:09:09.626Z,11.50
2018-10-12T20:12:15.200Z,14.57
2018-10-12T20:15:02.414Z,12.02
2018-10-12T20:17:51.632Z,12.45
2018-10-12T20:20:42.630Z,12.70
2018-10-12T20:23:42.552Z,9.73
2018-10-12T20:26:30.658Z,14.70
2018-10-12T20:32:31.641Z,11.02
2018-10-12T20:35:19.756Z,12.02
2018-10-12T20:38:26.411Z,11.50
2018-10-12T20:44:22.574Z,11.50
2018-10-12T20:47:11.505Z,13.23
2018-10-12T20:49:59.797Z,12.73
2018-10-12T20:52:48.656Z,14.05
2018-10-12T20:55:38.267Z,11.48
2018-10-12T20:58:25.905Z,15.57
2018-10-12T21:01:14.555Z,12.52
2018-10-12T21:04:02.460Z,14.35
2018-10-12T21:06:53.019Z,10.57
2018-10-12T21:12:48.446Z,13.05
2018-10-12T21:15:36.505Z,10.95
2018-10-12T21:18:24.462Z,11.52
2018-10-12T21:21:12.467Z,13.30
2018-10-12T21:28:43.485Z,10.18
2018-10-12T21:31:33.534Z,13.13
2018-10-12T21:34:27.459Z,12.10
2018-10-12T21:37:14.891Z,12.32
2018-10-12T21:40:12.180Z,11.85
2018-10-12T21:43:16.363Z,11.88
2018-10-12T21:46:03.925Z,13.88
2018-10-12T21:48:52.727Z,12.40
2018-10-12T21:51:40.154Z,11.25
2018-10-12T21:54:40.912Z,13.62
2018-10-12T21:57:29.687Z,12.68
2018-10-12T22:00:18.736Z,11.60
2018-10-12T22:03:06.229Z,13.30
2018-10-12T22:05:55.944Z,12.02
2018-10-12T22:08:44.843Z,12.50
2018-10-12T22:11:35.094Z,13.05
2018-10-12T22:14:24.246Z,12.52
2018-10-12T22:17:13.337Z,13.82
2018-10-12T22:20:05.733Z,15.20
2018-10-12T22:22:53.732Z,13.57
2018-10-12T22:28:53.705Z,10.90
2018-10-12T22:31:41.721Z,12.35
2018-10-12T22:34:30.847Z,12.15
2018-10-12T22:37:18.755Z,12.52
2018-10-12T22:43:12.648Z,11.65
2018-10-12T22:46:01.977Z,15.10
2018-10-12T22:48:52.365Z,13.48
2018-10-12T22:51:41.729Z,13.50
2018-10-12T22:54:29.398Z,10.13
2018-10-12T22:57:18.929Z,16.50
2018-10-12T23:00:08.819Z,12.90
2018-10-12T23:02:57.941Z,14.87
2018-10-12T23:05:49.428Z,13.93
2018-10-12T23:08:38.881Z,12.15
2018-10-12T23:11:27.913Z,12.90
2018-10-12T23:14:18.546Z,17.87
2018-10-12T23:17:08.377Z,11.80
2018-10-12T23:20:01.201Z,15.90
2018-10-12T23:22:49.123Z,13.68
2018-10-12T23:25:38.810Z,15.65
2018-10-12T23:28:26.479Z,17.95
2018-10-12T23:31:14.231Z,13.25
2018-10-12T23:34:01.960Z,16.48
2018-10-12T23:36:49.708Z,17.10
2018-10-12T23:39:43.589Z,15.45
2018-10-12T23:42:31.090Z,13.90
2018-10-12T23:48:28.858Z,16.98
2018-10-12T23:51:17.592Z,15.05
2018-10-12T23:54:05.305Z,17.05
2018-10-12T23:56:52.950Z,14.10
2018-10-12T23:59:40.852Z,18.40
